sensor_id;sensor_type;location;lat;lon;timestamp;pressure;altitude;pressure_sealevel;temperature;humidity
60642;BME280;46837;52.446;-1.930;2024-03-08T00:00:13;100156.40;;;5.13;75.18
60642;BME280;46837;52.446;-1.930;2024-03-08T00:01:09;100154.26;;;5.14;75.20
60642;BME280;46837;52.446;-1.930;2024-03-08T00:02:09;100157.61;;;5.13;75.14
60642;BME280;46837;52.446;-1.930;2024-03-08T00:03:09;100153.29;;;5.14;75.18
60642;BME280;46837;52.446;-1.930;2024-03-08T00:04:09;100152.56;;;5.17;75.23
60642;BME280;46837;52.446;-1.930;2024-03-08T00:05:09;100150.92;;;5.14;75.29
60642;BME280;46837;52.446;-1.930;2024-03-08T00:06:09;100148.61;;;5.18;75.36
60642;BME280;46837;52.446;-1.930;2024-03-08T00:07:09;100148.75;;;5.19;75.27
60642;BME280;46837;52.446;-1.930;2024-03-08T00:08:09;100144.92;;;5.17;75.40
60642;BME280;46837;52.446;-1.930;2024-03-08T00:09:10;100143.78;;;5.17;75.41
60642;BME280;46837;52.446;-1.930;2024-03-08T00:10:09;100143.19;;;5.08;75.88
60642;BME280;46837;52.446;-1.930;2024-03-08T00:11:09;100141.18;;;5.11;75.72
60642;BME280;46837;52.446;-1.930;2024-03-08T00:12:09;100141.79;;;5.09;75.76
60642;BME280;46837;52.446;-1.930;2024-03-08T00:13:09;100131.75;;;5.13;75.69
60642;BME280;46837;52.446;-1.930;2024-03-08T00:14:10;100134.31;;;5.09;75.66
60642;BME280;46837;52.446;-1.930;2024-03-08T00:15:09;100137.02;;;5.07;75.82
60642;BME280;46837;52.446;-1.930;2024-03-08T00:16:09;100131.46;;;5.10;75.86
60642;BME280;46837;52.446;-1.930;2024-03-08T00:17:09;100133.35;;;5.09;76.00
60642;BME280;46837;52.446;-1.930;2024-03-08T00:18:09;100132.95;;;5.10;75.84
60642;BME280;46837;52.446;-1.930;2024-03-08T00:19:09;100124.99;;;5.07;76.06
60642;BME280;46837;52.446;-1.930;2024-03-08T00:20:11;100129.73;;;5.07;76.02
60642;BME280;46837;52.446;-1.930;2024-03-08T00:21:09;100130.01;;;5.06;76.26
60642;BME280;46837;52.446;-1.930;2024-03-08T00:22:09;100129.74;;;5.05;76.20
60642;BME280;46837;52.446;-1.930;2024-03-08T00:23:09;100130.60;;;5.03;76.29
60642;BME280;46837;52.446;-1.930;2024-03-08T00:24:09;100127.54;;;5.04;76.31
60642;BME280;46837;52.446;-1.930;2024-03-08T00:25:09;100129.98;;;5.02;76.69
60642;BME280;46837;52.446;-1.930;2024-03-08T00:26:09;100126.04;;;5.00;76.86
60642;BME280;46837;52.446;-1.930;2024-03-08T00:27:09;100127.85;;;4.99;76.96
60642;BME280;46837;52.446;-1.930;2024-03-08T00:28:09;100124.34;;;5.04;76.97
60642;BME280;46837;52.446;-1.930;2024-03-08T00:29:09;100125.45;;;5.10;76.83
60642;BME280;46837;52.446;-1.930;2024-03-08T00:30:09;100123.73;;;5.10;76.80
60642;BME280;46837;52.446;-1.930;2024-03-08T00:31:09;100122.81;;;5.14;76.81
60642;BME280;46837;52.446;-1.930;2024-03-08T00:32:09;100127.61;;;5.14;76.69
60642;BME280;46837;52.446;-1.930;2024-03-08T00:33:09;100128.51;;;5.04;76.86
60642;BME280;46837;52.446;-1.930;2024-03-08T00:34:09;100123.12;;;5.03;77.22
60642;BME280;46837;52.446;-1.930;2024-03-08T00:35:10;100125.24;;;5.03;77.31
60642;BME280;46837;52.446;-1.930;2024-03-08T00:36:09;100124.11;;;4.99;77.31
60642;BME280;46837;52.446;-1.930;2024-03-08T00:37:09;100120.53;;;5.03;77.35
60642;BME280;46837;52.446;-1.930;2024-03-08T00:38:09;100118.52;;;5.06;77.12
60642;BME280;46837;52.446;-1.930;2024-03-08T00:39:09;100119.92;;;5.11;77.18
60642;BME280;46837;52.446;-1.930;2024-03-08T00:40:09;100115.61;;;5.10;77.12
60642;BME280;46837;52.446;-1.930;2024-03-08T00:41:09;100110.91;;;5.09;77.14
60642;BME280;46837;52.446;-1.930;2024-03-08T00:42:09;100113.61;;;5.12;77.19
60642;BME280;46837;52.446;-1.930;2024-03-08T00:43:09;100112.23;;;5.17;77.22
60642;BME280;46837;52.446;-1.930;2024-03-08T00:44:09;100110.64;;;5.15;77.00
60642;BME280;46837;52.446;-1.930;2024-03-08T00:45:09;100114.54;;;5.13;77.37
60642;BME280;46837;52.446;-1.930;2024-03-08T00:46:09;100111.50;;;5.15;77.39
60642;BME280;46837;52.446;-1.930;2024-03-08T00:47:09;100109.08;;;5.21;77.37
60642;BME280;46837;52.446;-1.930;2024-03-08T00:48:09;100111.18;;;5.24;77.54
60642;BME280;46837;52.446;-1.930;2024-03-08T00:49:09;100109.16;;;5.29;77.40
60642;BME280;46837;52.446;-1.930;2024-03-08T00:50:09;100112.30;;;5.28;77.25
60642;BME280;46837;52.446;-1.930;2024-03-08T00:51:09;100105.25;;;5.24;77.37
60642;BME280;46837;52.446;-1.930;2024-03-08T00:52:10;100109.28;;;5.29;77.50
60642;BME280;46837;52.446;-1.930;2024-03-08T00:53:09;100102.30;;;5.20;77.64
60642;BME280;46837;52.446;-1.930;2024-03-08T00:54:09;100099.67;;;5.28;77.78
60642;BME280;46837;52.446;-1.930;2024-03-08T00:55:09;100097.67;;;5.26;77.56
60642;BME280;46837;52.446;-1.930;2024-03-08T00:56:10;100092.68;;;5.31;77.52
60642;BME280;46837;52.446;-1.930;2024-03-08T00:57:09;100095.51;;;5.29;77.48
60642;BME280;46837;52.446;-1.930;2024-03-08T00:58:09;100097.46;;;5.29;77.56
60642;BME280;46837;52.446;-1.930;2024-03-08T00:59:09;100093.03;;;5.27;77.73
60642;BME280;46837;52.446;-1.930;2024-03-08T01:00:12;100093.57;;;5.22;77.74
60642;BME280;46837;52.446;-1.930;2024-03-08T01:01:09;100090.31;;;5.19;77.93
60642;BME280;46837;52.446;-1.930;2024-03-08T01:02:09;100090.97;;;5.20;78.06
60642;BME280;46837;52.446;-1.930;2024-03-08T01:03:09;100087.77;;;5.20;77.99
60642;BME280;46837;52.446;-1.930;2024-03-08T01:04:09;100090.90;;;5.20;78.06
60642;BME280;46837;52.446;-1.930;2024-03-08T01:05:10;100089.65;;;5.26;78.06
60642;BME280;46837;52.446;-1.930;2024-03-08T01:06:09;100084.50;;;5.25;77.92
60642;BME280;46837;52.446;-1.930;2024-03-08T01:07:09;100086.86;;;5.22;78.29
60642;BME280;46837;52.446;-1.930;2024-03-08T01:08:09;100080.32;;;5.25;78.26
60642;BME280;46837;52.446;-1.930;2024-03-08T01:09:09;100083.41;;;5.28;78.23
60642;BME280;46837;52.446;-1.930;2024-03-08T01:10:12;100076.33;;;5.31;78.07
60642;BME280;46837;52.446;-1.930;2024-03-08T01:11:09;100081.86;;;5.33;78.04
60642;BME280;46837;52.446;-1.930;2024-03-08T01:12:10;100079.93;;;5.29;78.08
60642;BME280;46837;52.446;-1.930;2024-03-08T01:13:10;100078.14;;;5.29;78.19
60642;BME280;46837;52.446;-1.930;2024-03-08T01:14:09;100077.42;;;5.29;78.19
60642;BME280;46837;52.446;-1.930;2024-03-08T01:15:09;100074.45;;;5.27;78.28
60642;BME280;46837;52.446;-1.930;2024-03-08T01:16:09;100072.15;;;5.26;78.40
60642;BME280;46837;52.446;-1.930;2024-03-08T01:17:09;100069.42;;;5.18;78.71
60642;BME280;46837;52.446;-1.930;2024-03-08T01:18:09;100067.12;;;5.14;79.09
60642;BME280;46837;52.446;-1.930;2024-03-08T01:19:09;100067.52;;;5.20;78.94
60642;BME280;46837;52.446;-1.930;2024-03-08T01:20:09;100058.65;;;5.23;78.77
60642;BME280;46837;52.446;-1.930;2024-03-08T01:21:09;100060.84;;;5.24;78.71
60642;BME280;46837;52.446;-1.930;2024-03-08T01:22:09;100063.00;;;5.26;78.87
60642;BME280;46837;52.446;-1.930;2024-03-08T01:23:10;100059.47;;;5.25;78.86
60642;BME280;46837;52.446;-1.930;2024-03-08T01:24:09;100055.32;;;5.27;78.92
60642;BME280;46837;52.446;-1.930;2024-03-08T01:25:09;100055.53;;;5.27;79.05
60642;BME280;46837;52.446;-1.930;2024-03-08T01:26:09;100055.73;;;5.25;79.40
60642;BME280;46837;52.446;-1.930;2024-03-08T01:27:09;100055.50;;;5.31;79.11
60642;BME280;46837;52.446;-1.930;2024-03-08T01:28:09;100046.86;;;5.26;79.15
60642;BME280;46837;52.446;-1.930;2024-03-08T01:29:09;100050.38;;;5.26;79.28
60642;BME280;46837;52.446;-1.930;2024-03-08T01:30:09;100047.39;;;5.21;79.44
60642;BME280;46837;52.446;-1.930;2024-03-08T01:31:09;100052.53;;;5.25;79.56
60642;BME280;46837;52.446;-1.930;2024-03-08T01:32:09;100051.16;;;5.25;79.63
60642;BME280;46837;52.446;-1.930;2024-03-08T01:33:09;100046.16;;;5.17;80.18
60642;BME280;46837;52.446;-1.930;2024-03-08T01:34:09;100044.37;;;5.19;80.30
60642;BME280;46837;52.446;-1.930;2024-03-08T01:35:09;100044.42;;;5.26;80.15
60642;BME280;46837;52.446;-1.930;2024-03-08T01:36:09;100040.90;;;5.31;80.00
60642;BME280;46837;52.446;-1.930;2024-03-08T01:37:09;100041.71;;;5.27;80.17
60642;BME280;46837;52.446;-1.930;2024-03-08T01:38:09;100034.97;;;5.21;80.76
60642;BME280;46837;52.446;-1.930;2024-03-08T01:39:10;100040.06;;;5.25;80.40
60642;BME280;46837;52.446;-1.930;2024-03-08T01:40:09;100036.88;;;5.28;80.35
60642;BME280;46837;52.446;-1.930;2024-03-08T01:41:09;100039.50;;;5.32;80.09
60642;BME280;46837;52.446;-1.930;2024-03-08T01:42:09;100034.61;;;5.36;80.06
60642;BME280;46837;52.446;-1.930;2024-03-08T01:44:10;100035.58;;;5.40;79.95
60642;BME280;46837;52.446;-1.930;2024-03-08T01:45:09;100033.86;;;5.36;80.08
60642;BME280;46837;52.446;-1.930;2024-03-08T01:46:09;100034.68;;;5.36;80.25
60642;BME280;46837;52.446;-1.930;2024-03-08T01:47:09;100032.40;;;5.39;80.27
60642;BME280;46837;52.446;-1.930;2024-03-08T01:48:09;100031.72;;;5.33;80.37
60642;BME280;46837;52.446;-1.930;2024-03-08T01:49:09;100027.66;;;5.38;80.62
60642;BME280;46837;52.446;-1.930;2024-03-08T01:50:09;100026.85;;;5.41;80.47
60642;BME280;46837;52.446;-1.930;2024-03-08T01:51:09;100021.44;;;5.38;80.57
60642;BME280;46837;52.446;-1.930;2024-03-08T01:52:09;100026.74;;;5.41;80.48
60642;BME280;46837;52.446;-1.930;2024-03-08T01:53:09;100026.27;;;5.42;80.51
60642;BME280;46837;52.446;-1.930;2024-03-08T01:54:09;100023.28;;;5.41;80.71
60642;BME280;46837;52.446;-1.930;2024-03-08T01:55:09;100026.41;;;5.28;81.27
60642;BME280;46837;52.446;-1.930;2024-03-08T01:56:09;100022.39;;;5.35;81.43
60642;BME280;46837;52.446;-1.930;2024-03-08T01:57:09;100021.83;;;5.36;81.42
60642;BME280;46837;52.446;-1.930;2024-03-08T01:58:10;100018.77;;;5.40;81.22
60642;BME280;46837;52.446;-1.930;2024-03-08T01:59:10;100023.34;;;5.43;80.95
60642;BME280;46837;52.446;-1.930;2024-03-08T02:00:09;100021.79;;;5.45;80.99
60642;BME280;46837;52.446;-1.930;2024-03-08T02:01:09;100016.61;;;5.46;81.15
60642;BME280;46837;52.446;-1.930;2024-03-08T02:02:09;100018.56;;;5.41;81.17
60642;BME280;46837;52.446;-1.930;2024-03-08T02:03:09;100013.95;;;5.41;81.46
60642;BME280;46837;52.446;-1.930;2024-03-08T02:04:10;100014.43;;;5.42;81.62
60642;BME280;46837;52.446;-1.930;2024-03-08T02:05:09;100008.92;;;5.36;81.64
60642;BME280;46837;52.446;-1.930;2024-03-08T02:06:12;100015.38;;;5.42;81.73
60642;BME280;46837;52.446;-1.930;2024-03-08T02:07:09;100005.04;;;5.42;81.49
60642;BME280;46837;52.446;-1.930;2024-03-08T02:08:10;100006.69;;;5.43;81.55
60642;BME280;46837;52.446;-1.930;2024-03-08T02:09:09;100003.32;;;5.43;81.53
60642;BME280;46837;52.446;-1.930;2024-03-08T02:10:09;100002.54;;;5.42;81.84
60642;BME280;46837;52.446;-1.930;2024-03-08T02:11:09;99997.73;;;5.45;81.64
60642;BME280;46837;52.446;-1.930;2024-03-08T02:12:09;99992.85;;;5.42;81.80
60642;BME280;46837;52.446;-1.930;2024-03-08T02:13:09;99991.64;;;5.33;82.72
60642;BME280;46837;52.446;-1.930;2024-03-08T02:14:09;99994.86;;;5.34;82.68
60642;BME280;46837;52.446;-1.930;2024-03-08T02:15:09;99988.21;;;5.35;82.95
60642;BME280;46837;52.446;-1.930;2024-03-08T02:16:10;99985.81;;;5.42;82.52
60642;BME280;46837;52.446;-1.930;2024-03-08T02:17:09;99980.42;;;5.46;82.11
60642;BME280;46837;52.446;-1.930;2024-03-08T02:18:09;99984.46;;;5.47;82.05
60642;BME280;46837;52.446;-1.930;2024-03-08T02:19:09;99986.88;;;5.45;82.53
60642;BME280;46837;52.446;-1.930;2024-03-08T02:20:09;99985.11;;;5.47;82.43
60642;BME280;46837;52.446;-1.930;2024-03-08T02:21:09;99981.43;;;5.50;82.27
60642;BME280;46837;52.446;-1.930;2024-03-08T02:22:09;99985.54;;;5.53;82.11
60642;BME280;46837;52.446;-1.930;2024-03-08T02:23:09;99983.34;;;5.51;82.42
60642;BME280;46837;52.446;-1.930;2024-03-08T02:24:09;99980.46;;;5.52;82.49
60642;BME280;46837;52.446;-1.930;2024-03-08T02:25:09;99978.62;;;5.51;82.48
60642;BME280;46837;52.446;-1.930;2024-03-08T02:26:09;99974.49;;;5.53;82.53
60642;BME280;46837;52.446;-1.930;2024-03-08T02:27:09;99974.48;;;5.58;82.36
60642;BME280;46837;52.446;-1.930;2024-03-08T02:28:09;99972.12;;;5.55;82.52
60642;BME280;46837;52.446;-1.930;2024-03-08T02:29:09;99970.86;;;5.50;82.78
60642;BME280;46837;52.446;-1.930;2024-03-08T02:30:09;99965.33;;;5.56;82.62
60642;BME280;46837;52.446;-1.930;2024-03-08T02:31:11;99965.95;;;5.52;82.89
60642;BME280;46837;52.446;-1.930;2024-03-08T02:32:09;99959.62;;;5.53;82.81
60642;BME280;46837;52.446;-1.930;2024-03-08T02:33:09;99964.64;;;5.51;82.91
60642;BME280;46837;52.446;-1.930;2024-03-08T02:34:09;99964.16;;;5.52;82.99
60642;BME280;46837;52.446;-1.930;2024-03-08T02:35:09;99958.82;;;5.47;83.42
60642;BME280;46837;52.446;-1.930;2024-03-08T02:36:09;99958.88;;;5.53;83.24
60642;BME280;46837;52.446;-1.930;2024-03-08T02:37:09;99956.91;;;5.47;83.80
60642;BME280;46837;52.446;-1.930;2024-03-08T02:38:09;99953.77;;;5.50;83.49
60642;BME280;46837;52.446;-1.930;2024-03-08T02:39:10;99946.45;;;5.53;83.32
60642;BME280;46837;52.446;-1.930;2024-03-08T02:40:09;99947.78;;;5.52;83.28
60642;BME280;46837;52.446;-1.930;2024-03-08T02:41:09;99947.83;;;5.48;83.26
60642;BME280;46837;52.446;-1.930;2024-03-08T02:42:09;99939.77;;;5.52;83.34
60642;BME280;46837;52.446;-1.930;2024-03-08T02:43:09;99944.14;;;5.51;83.40
60642;BME280;46837;52.446;-1.930;2024-03-08T02:44:09;99940.95;;;5.53;83.41
60642;BME280;46837;52.446;-1.930;2024-03-08T02:45:09;99941.06;;;5.51;83.56
60642;BME280;46837;52.446;-1.930;2024-03-08T02:46:09;99938.05;;;5.47;83.93
60642;BME280;46837;52.446;-1.930;2024-03-08T02:47:09;99935.93;;;5.52;83.79
60642;BME280;46837;52.446;-1.930;2024-03-08T02:48:09;99930.79;;;5.56;83.64
60642;BME280;46837;52.446;-1.930;2024-03-08T02:49:09;99929.11;;;5.52;83.59
60642;BME280;46837;52.446;-1.930;2024-03-08T02:50:10;99929.37;;;5.54;83.85
60642;BME280;46837;52.446;-1.930;2024-03-08T02:51:09;99930.52;;;5.53;83.86
60642;BME280;46837;52.446;-1.930;2024-03-08T02:52:09;99928.75;;;5.53;83.96
60642;BME280;46837;52.446;-1.930;2024-03-08T02:53:09;99930.95;;;5.58;83.77
60642;BME280;46837;52.446;-1.930;2024-03-08T02:54:09;99929.98;;;5.56;83.79
60642;BME280;46837;52.446;-1.930;2024-03-08T02:55:09;99921.77;;;5.57;83.89
60642;BME280;46837;52.446;-1.930;2024-03-08T02:56:11;99929.70;;;5.44;84.23
60642;BME280;46837;52.446;-1.930;2024-03-08T02:57:10;99925.62;;;5.49;84.55
60642;BME280;46837;52.446;-1.930;2024-03-08T02:58:09;99922.31;;;5.54;84.01
60642;BME280;46837;52.446;-1.930;2024-03-08T02:59:09;99919.62;;;5.55;83.95
60642;BME280;46837;52.446;-1.930;2024-03-08T03:00:09;99922.33;;;5.57;83.88
60642;BME280;46837;52.446;-1.930;2024-03-08T03:01:09;99916.76;;;5.61;83.61
60642;BME280;46837;52.446;-1.930;2024-03-08T03:02:09;99920.02;;;5.62;83.61
60642;BME280;46837;52.446;-1.930;2024-03-08T03:03:09;99918.98;;;5.59;83.62
60642;BME280;46837;52.446;-1.930;2024-03-08T03:04:09;99917.45;;;5.52;84.17
60642;BME280;46837;52.446;-1.930;2024-03-08T03:05:09;99916.09;;;5.55;84.25
60642;BME280;46837;52.446;-1.930;2024-03-08T03:06:10;99913.93;;;5.44;84.72
60642;BME280;46837;52.446;-1.930;2024-03-08T03:07:09;99908.65;;;5.48;84.73
60642;BME280;46837;52.446;-1.930;2024-03-08T03:08:11;99912.63;;;5.55;84.42
60642;BME280;46837;52.446;-1.930;2024-03-08T03:09:09;99907.79;;;5.46;85.03
60642;BME280;46837;52.446;-1.930;2024-03-08T03:10:09;99903.06;;;5.50;84.69
60642;BME280;46837;52.446;-1.930;2024-03-08T03:11:09;99903.86;;;5.50;84.68
60642;BME280;46837;52.446;-1.930;2024-03-08T03:12:10;99899.02;;;5.40;85.04
60642;BME280;46837;52.446;-1.930;2024-03-08T03:13:09;99891.02;;;5.50;84.95
60642;BME280;46837;52.446;-1.930;2024-03-08T03:14:12;99896.20;;;5.57;84.52
60642;BME280;46837;52.446;-1.930;2024-03-08T03:15:09;99893.37;;;5.54;84.71
60642;BME280;46837;52.446;-1.930;2024-03-08T03:16:09;99889.40;;;5.53;84.59
60642;BME280;46837;52.446;-1.930;2024-03-08T03:17:09;99886.82;;;5.49;84.83
60642;BME280;46837;52.446;-1.930;2024-03-08T03:18:10;99881.80;;;5.48;84.98
60642;BME280;46837;52.446;-1.930;2024-03-08T03:19:09;99882.23;;;5.50;84.78
60642;BME280;46837;52.446;-1.930;2024-03-08T03:20:12;99888.06;;;5.51;84.89
60642;BME280;46837;52.446;-1.930;2024-03-08T03:21:10;99887.41;;;5.45;84.94
60642;BME280;46837;52.446;-1.930;2024-03-08T03:22:09;99887.37;;;5.52;84.89
60642;BME280;46837;52.446;-1.930;2024-03-08T03:23:09;99884.16;;;5.57;84.59
60642;BME280;46837;52.446;-1.930;2024-03-08T03:24:12;99881.21;;;5.53;84.59
60642;BME280;46837;52.446;-1.930;2024-03-08T03:25:10;99874.14;;;5.54;84.75
60642;BME280;46837;52.446;-1.930;2024-03-08T03:26:10;99878.72;;;5.48;84.84
60642;BME280;46837;52.446;-1.930;2024-03-08T03:27:13;99874.57;;;5.52;84.90
60642;BME280;46837;52.446;-1.930;2024-03-08T03:28:10;99875.20;;;5.56;84.67
60642;BME280;46837;52.446;-1.930;2024-03-08T03:29:09;99872.27;;;5.56;84.72
60642;BME280;46837;52.446;-1.930;2024-03-08T03:30:13;99870.57;;;5.58;84.64
60642;BME280;46837;52.446;-1.930;2024-03-08T03:31:09;99869.49;;;5.61;84.42
60642;BME280;46837;52.446;-1.930;2024-03-08T03:32:09;99867.87;;;5.62;84.30
60642;BME280;46837;52.446;-1.930;2024-03-08T03:33:10;99864.37;;;5.60;84.43
60642;BME280;46837;52.446;-1.930;2024-03-08T03:34:11;99861.65;;;5.59;84.68
60642;BME280;46837;52.446;-1.930;2024-03-08T03:35:09;99862.16;;;5.52;84.94
60642;BME280;46837;52.446;-1.930;2024-03-08T03:36:09;99862.61;;;5.56;85.01
60642;BME280;46837;52.446;-1.930;2024-03-08T03:37:09;99858.12;;;5.59;84.99
60642;BME280;46837;52.446;-1.930;2024-03-08T03:38:10;99859.85;;;5.56;84.98
60642;BME280;46837;52.446;-1.930;2024-03-08T03:39:13;99857.61;;;5.58;84.89
60642;BME280;46837;52.446;-1.930;2024-03-08T03:40:09;99851.90;;;5.63;84.61
60642;BME280;46837;52.446;-1.930;2024-03-08T03:41:13;99860.80;;;5.57;84.96
60642;BME280;46837;52.446;-1.930;2024-03-08T03:42:09;99850.84;;;5.54;85.37
60642;BME280;46837;52.446;-1.930;2024-03-08T03:43:09;99850.18;;;5.58;85.20
60642;BME280;46837;52.446;-1.930;2024-03-08T03:44:09;99847.16;;;5.59;85.09
60642;BME280;46837;52.446;-1.930;2024-03-08T03:45:09;99847.84;;;5.57;85.04
60642;BME280;46837;52.446;-1.930;2024-03-08T03:46:09;99844.29;;;5.56;85.02
60642;BME280;46837;52.446;-1.930;2024-03-08T03:47:09;99843.60;;;5.53;85.17
60642;BME280;46837;52.446;-1.930;2024-03-08T03:48:09;99837.55;;;5.52;85.41
60642;BME280;46837;52.446;-1.930;2024-03-08T03:49:09;99833.86;;;5.55;85.14
60642;BME280;46837;52.446;-1.930;2024-03-08T03:50:09;99840.54;;;5.57;84.90
60642;BME280;46837;52.446;-1.930;2024-03-08T03:51:09;99838.00;;;5.58;84.86
60642;BME280;46837;52.446;-1.930;2024-03-08T03:52:09;99833.27;;;5.57;84.83
60642;BME280;46837;52.446;-1.930;2024-03-08T03:53:10;99836.38;;;5.58;84.92
60642;BME280;46837;52.446;-1.930;2024-03-08T03:54:09;99833.76;;;5.52;85.02
60642;BME280;46837;52.446;-1.930;2024-03-08T03:55:09;99834.06;;;5.51;85.33
60642;BME280;46837;52.446;-1.930;2024-03-08T03:56:09;99831.12;;;5.53;85.00
60642;BME280;46837;52.446;-1.930;2024-03-08T03:57:09;99825.18;;;5.53;84.89
60642;BME280;46837;52.446;-1.930;2024-03-08T03:58:09;99826.92;;;5.47;85.00
60642;BME280;46837;52.446;-1.930;2024-03-08T03:59:09;99826.71;;;5.46;85.29
60642;BME280;46837;52.446;-1.930;2024-03-08T04:00:09;99828.00;;;5.47;85.25
60642;BME280;46837;52.446;-1.930;2024-03-08T04:01:09;99821.64;;;5.40;85.26
60642;BME280;46837;52.446;-1.930;2024-03-08T04:02:09;99820.95;;;5.48;85.17
60642;BME280;46837;52.446;-1.930;2024-03-08T04:03:09;99820.76;;;5.49;84.85
60642;BME280;46837;52.446;-1.930;2024-03-08T04:04:09;99820.08;;;5.50;85.12
60642;BME280;46837;52.446;-1.930;2024-03-08T04:05:09;99821.05;;;5.53;84.93
60642;BME280;46837;52.446;-1.930;2024-03-08T04:06:09;99818.18;;;5.44;85.36
60642;BME280;46837;52.446;-1.930;2024-03-08T04:07:09;99818.75;;;5.52;85.03
60642;BME280;46837;52.446;-1.930;2024-03-08T04:08:09;99812.98;;;5.53;84.86
60642;BME280;46837;52.446;-1.930;2024-03-08T04:09:09;99815.92;;;5.50;84.75
60642;BME280;46837;52.446;-1.930;2024-03-08T04:10:09;99810.14;;;5.56;84.83
60642;BME280;46837;52.446;-1.930;2024-03-08T04:11:09;99808.62;;;5.59;84.60
60642;BME280;46837;52.446;-1.930;2024-03-08T04:12:09;99806.55;;;5.57;84.65
60642;BME280;46837;52.446;-1.930;2024-03-08T04:13:09;99809.08;;;5.60;84.54
60642;BME280;46837;52.446;-1.930;2024-03-08T04:14:09;99807.55;;;5.59;84.44
60642;BME280;46837;52.446;-1.930;2024-03-08T04:15:10;99805.29;;;5.60;84.54
60642;BME280;46837;52.446;-1.930;2024-03-08T04:16:10;99807.21;;;5.62;84.22
60642;BME280;46837;52.446;-1.930;2024-03-08T04:17:09;99805.46;;;5.57;84.57
60642;BME280;46837;52.446;-1.930;2024-03-08T04:18:09;99806.99;;;5.55;84.76
60642;BME280;46837;52.446;-1.930;2024-03-08T04:19:09;99806.79;;;5.53;84.77
60642;BME280;46837;52.446;-1.930;2024-03-08T04:20:12;99812.36;;;5.49;84.56
60642;BME280;46837;52.446;-1.930;2024-03-08T04:21:09;99806.27;;;5.48;85.08
60642;BME280;46837;52.446;-1.930;2024-03-08T04:22:09;99807.88;;;5.56;84.97
60642;BME280;46837;52.446;-1.930;2024-03-08T04:23:09;99805.95;;;5.58;84.82
60642;BME280;46837;52.446;-1.930;2024-03-08T04:24:09;99800.90;;;5.60;84.61
60642;BME280;46837;52.446;-1.930;2024-03-08T04:25:09;99800.43;;;5.62;84.31
60642;BME280;46837;52.446;-1.930;2024-03-08T04:26:09;99802.23;;;5.65;84.16
60642;BME280;46837;52.446;-1.930;2024-03-08T04:27:09;99801.16;;;5.68;83.94
60642;BME280;46837;52.446;-1.930;2024-03-08T04:28:09;99799.95;;;5.64;83.93
60642;BME280;46837;52.446;-1.930;2024-03-08T04:29:09;99803.86;;;5.68;84.07
60642;BME280;46837;52.446;-1.930;2024-03-08T04:30:10;99800.00;;;5.69;83.94
60642;BME280;46837;52.446;-1.930;2024-03-08T04:31:09;99806.95;;;5.65;84.03
60642;BME280;46837;52.446;-1.930;2024-03-08T04:32:09;99800.98;;;5.62;84.09
60642;BME280;46837;52.446;-1.930;2024-03-08T04:33:09;99799.60;;;5.63;84.00
60642;BME280;46837;52.446;-1.930;2024-03-08T04:34:09;99796.68;;;5.63;83.92
60642;BME280;46837;52.446;-1.930;2024-03-08T04:35:09;99801.73;;;5.55;83.84
60642;BME280;46837;52.446;-1.930;2024-03-08T04:36:09;99800.99;;;5.44;84.60
60642;BME280;46837;52.446;-1.930;2024-03-08T04:37:09;99798.46;;;5.51;84.69
60642;BME280;46837;52.446;-1.930;2024-03-08T04:38:09;99797.99;;;5.54;84.16
60642;BME280;46837;52.446;-1.930;2024-03-08T04:39:09;99794.35;;;5.54;84.16
60642;BME280;46837;52.446;-1.930;2024-03-08T04:40:09;99793.14;;;5.60;84.03
60642;BME280;46837;52.446;-1.930;2024-03-08T04:41:09;99795.72;;;5.55;84.00
60642;BME280;46837;52.446;-1.930;2024-03-08T04:42:09;99795.80;;;5.53;84.14
60642;BME280;46837;52.446;-1.930;2024-03-08T04:43:09;99798.58;;;5.54;84.34
60642;BME280;46837;52.446;-1.930;2024-03-08T04:44:09;99801.68;;;5.57;84.18
60642;BME280;46837;52.446;-1.930;2024-03-08T04:45:09;99794.58;;;5.55;84.00
60642;BME280;46837;52.446;-1.930;2024-03-08T04:46:09;99793.29;;;5.58;83.93
60642;BME280;46837;52.446;-1.930;2024-03-08T04:47:09;99792.45;;;5.57;83.85
60642;BME280;46837;52.446;-1.930;2024-03-08T04:48:09;99794.91;;;5.55;83.94
60642;BME280;46837;52.446;-1.930;2024-03-08T04:49:09;99793.05;;;5.54;83.65
60642;BME280;46837;52.446;-1.930;2024-03-08T04:50:09;99794.93;;;5.53;83.81
60642;BME280;46837;52.446;-1.930;2024-03-08T04:51:09;99793.06;;;5.52;83.88
60642;BME280;46837;52.446;-1.930;2024-03-08T04:52:09;99791.55;;;5.59;83.73
60642;BME280;46837;52.446;-1.930;2024-03-08T04:53:10;99795.59;;;5.57;83.70
60642;BME280;46837;52.446;-1.930;2024-03-08T04:54:09;99790.82;;;5.54;83.66
60642;BME280;46837;52.446;-1.930;2024-03-08T04:55:09;99794.75;;;5.58;83.76
60642;BME280;46837;52.446;-1.930;2024-03-08T04:56:09;99791.66;;;5.59;83.51
60642;BME280;46837;52.446;-1.930;2024-03-08T04:57:09;99793.68;;;5.59;83.61
60642;BME280;46837;52.446;-1.930;2024-03-08T04:58:10;99796.46;;;5.54;83.72
60642;BME280;46837;52.446;-1.930;2024-03-08T04:59:10;99793.96;;;5.53;83.75
60642;BME280;46837;52.446;-1.930;2024-03-08T05:00:13;99795.69;;;5.56;83.69
60642;BME280;46837;52.446;-1.930;2024-03-08T05:01:09;99792.36;;;5.59;83.52
60642;BME280;46837;52.446;-1.930;2024-03-08T05:02:09;99789.81;;;5.61;83.40
60642;BME280;46837;52.446;-1.930;2024-03-08T05:03:09;99791.43;;;5.55;83.27
60642;BME280;46837;52.446;-1.930;2024-03-08T05:04:09;99795.49;;;5.54;83.73
60642;BME280;46837;52.446;-1.930;2024-03-08T05:05:09;99796.52;;;5.58;83.49
60642;BME280;46837;52.446;-1.930;2024-03-08T05:06:09;99788.03;;;5.56;83.23
60642;BME280;46837;52.446;-1.930;2024-03-08T05:07:09;99787.01;;;5.59;83.31
60642;BME280;46837;52.446;-1.930;2024-03-08T05:08:09;99789.72;;;5.56;83.20
60642;BME280;46837;52.446;-1.930;2024-03-08T05:09:13;99783.44;;;5.63;83.35
60642;BME280;46837;52.446;-1.930;2024-03-08T05:10:09;99788.70;;;5.66;83.09
60642;BME280;46837;52.446;-1.930;2024-03-08T05:11:09;99786.01;;;5.64;83.07
60642;BME280;46837;52.446;-1.930;2024-03-08T05:12:09;99784.35;;;5.61;83.07
60642;BME280;46837;52.446;-1.930;2024-03-08T05:13:09;99780.01;;;5.65;83.02
60642;BME280;46837;52.446;-1.930;2024-03-08T05:14:09;99775.08;;;5.61;83.06
60642;BME280;46837;52.446;-1.930;2024-03-08T05:15:09;99782.41;;;5.60;82.99
60642;BME280;46837;52.446;-1.930;2024-03-08T05:16:09;99780.99;;;5.56;83.28